Time,TemperatureF,DewpointF,PressureIn,WindDirection,WindDirectionDegrees,WindSpeedMPH,WindSpeedGustMPH,Humidity,HourlyPrecipIn,Conditions,Clouds,dailyrainin,SolarRadiationWatts/m^2,SoftwareType,DateUTC
2013-11-21 00:01:00,20.0,16.0,-100.00,NE,42,0.0,1.0,85,0.00,,,0.00,0.000000,,2013-11-21 05:01:00,
2013-11-21 00:43:00,20.0,16.0,-100.00,NE,42,0.0,1.0,85,0.00,,,0.00,0.000000,,2013-11-21 05:43:00,
2013-11-21 00:53:00,20.0,16.0,-100.00,NE,42,0.0,1.0,85,0.00,,,0.00,0.000000,,2013-11-21 05:53:00,
2013-11-21 01:01:00,20.0,17.0,-100.00,NE,37,0.0,1.0,87,0.00,,,0.00,0.000000,,2013-11-21 06:01:00,
2013-11-21 01:43:00,20.0,17.0,-100.00,NE,37,0.0,1.0,87,0.00,,,0.00,0.000000,,2013-11-21 06:43:00,
2013-11-21 01:52:00,20.0,17.0,-100.00,NE,37,0.0,1.0,87,0.00,,,0.00,0.000000,,2013-11-21 06:52:00,
2013-11-21 02:01:00,20.0,16.0,-100.00,SSW,205,0.0,3.0,84,0.00,,,0.00,0.000000,,2013-11-21 07:01:00,
2013-11-21 02:43:00,20.0,16.0,-100.00,SSW,205,0.0,3.0,84,0.00,,,0.00,0.000000,,2013-11-21 07:43:00,
2013-11-21 02:52:00,20.0,16.0,-100.00,SSW,205,0.0,3.0,84,0.00,,,0.00,0.000000,,2013-11-21 07:52:00,
2013-11-21 03:01:00,18.0,14.0,-100.00,West,274,0.0,0.0,84,0.00,,,0.00,0.000000,,2013-11-21 08:01:00,
2013-11-21 03:42:00,18.0,14.0,-100.00,West,274,0.0,0.0,84,0.00,,,0.00,0.000000,,2013-11-21 08:42:00,
2013-11-21 03:52:00,18.0,14.0,-100.00,West,274,0.0,0.0,84,0.00,,,0.00,0.000000,,2013-11-21 08:52:00,
2013-11-21 04:01:00,19.0,15.0,-100.00,SSE,160,0.0,3.0,85,0.00,,,0.00,0.000000,,2013-11-21 09:01:00,
2013-11-21 04:43:00,19.0,15.0,-100.00,SSE,160,0.0,3.0,85,0.00,,,0.00,0.000000,,2013-11-21 09:43:00,
2013-11-21 04:53:00,19.0,15.0,-100.00,SSE,160,0.0,3.0,85,0.00,,,0.00,0.000000,,2013-11-21 09:53:00,
2013-11-21 05:01:00,18.0,14.0,-100.00,NW,311,0.0,2.0,84,0.00,,,0.00,0.000000,,2013-11-21 10:01:00,
2013-11-21 05:42:00,18.0,14.0,-100.00,NW,311,0.0,2.0,84,0.00,,,0.00,0.000000,,2013-11-21 10:42:00,
2013-11-21 05:53:00,18.0,14.0,-100.00,NW,311,0.0,2.0,84,0.00,,,0.00,0.000000,,2013-11-21 10:53:00,
2013-11-21 06:01:00,18.0,13.0,-100.00,NE,51,0.0,3.0,81,0.00,,,0.00,0.000000,,2013-11-21 11:01:00,
2013-11-21 06:43:00,18.0,13.0,-100.00,NE,51,0.0,3.0,81,0.00,,,0.00,0.000000,,2013-11-21 11:43:00,
2013-11-21 06:52:00,18.0,13.0,-100.00,NE,51,0.0,3.0,81,0.00,,,0.00,0.000000,,2013-11-21 11:52:00,
2013-11-21 07:01:00,16.0,13.0,-100.00,NE,54,0.0,2.0,87,0.00,,,0.00,0.000000,,2013-11-21 12:01:00,
2013-11-21 07:42:00,16.0,13.0,-100.00,NE,54,0.0,2.0,87,0.00,,,0.00,0.000000,,2013-11-21 12:42:00,
2013-11-21 07:52:00,16.0,13.0,-100.00,NE,54,0.0,2.0,87,0.00,,,0.00,0.000000,,2013-11-21 12:52:00,
2013-11-21 08:01:00,18.0,15.0,-100.00,West,272,0.0,1.0,86,0.00,,,0.00,20.000000,,2013-11-21 13:01:00,
2013-11-21 08:22:00,18.0,15.0,-100.00,West,272,0.0,1.0,86,0.00,,,0.00,20.000000,,2013-11-21 13:22:00,
2013-11-21 08:32:00,18.0,15.0,-100.00,West,272,0.0,1.0,86,0.00,,,0.00,20.000000,,2013-11-21 13:32:00,
2013-11-21 08:42:00,18.0,15.0,-100.00,West,272,0.0,1.0,86,0.00,,,0.00,20.000000,,2013-11-21 13:42:00,
2013-11-21 08:52:00,18.0,15.0,-100.00,West,272,0.0,1.0,86,0.00,,,0.00,20.000000,,2013-11-21 13:52:00,
2013-11-21 09:01:00,27.0,21.0,-100.00,ENE,65,0.0,1.0,77,0.00,,,0.00,119.000000,,2013-11-21 14:01:00,
2013-11-21 09:42:00,27.0,21.0,-100.00,ENE,65,0.0,1.0,77,0.00,,,0.00,119.000000,,2013-11-21 14:42:00,
2013-11-21 09:52:00,27.0,21.0,-100.00,ENE,65,0.0,1.0,77,0.00,,,0.00,119.000000,,2013-11-21 14:52:00,
2013-11-21 10:01:00,33.0,25.0,-100.00,NE,46,0.0,0.0,72,0.00,,,0.00,209.000000,,2013-11-21 15:01:00,
2013-11-21 10:44:00,33.0,25.0,-100.00,NE,46,0.0,0.0,72,0.00,,,0.00,209.000000,,2013-11-21 15:44:00,
2013-11-21 10:53:00,33.0,25.0,-100.00,NE,46,0.0,0.0,72,0.00,,,0.00,209.000000,,2013-11-21 15:53:00,
2013-11-21 11:01:00,41.0,11.0,-100.00,South,182,2.0,4.0,29,0.00,,,0.00,368.000000,,2013-11-21 16:01:00,
2013-11-21 11:42:00,41.0,11.0,-100.00,South,182,2.0,4.0,29,0.00,,,0.00,368.000000,,2013-11-21 16:42:00,
2013-11-21 11:53:00,41.0,11.0,-100.00,South,182,2.0,4.0,29,0.00,,,0.00,368.000000,,2013-11-21 16:53:00,
2013-11-21 12:01:00,46.0,11.0,-100.00,SW,216,0.0,4.0,24,0.00,,,0.00,344.000000,,2013-11-21 17:01:00,
2013-11-21 12:42:00,46.0,11.0,-100.00,SW,216,0.0,4.0,24,0.00,,,0.00,344.000000,,2013-11-21 17:42:00,
2013-11-21 12:52:00,46.0,11.0,-100.00,SW,216,0.0,4.0,24,0.00,,,0.00,344.000000,,2013-11-21 17:52:00,
2013-11-21 13:01:00,48.0,11.0,-100.00,SSW,212,2.0,8.0,22,0.00,,,0.00,285.000000,,2013-11-21 18:01:00,
2013-11-21 13:42:00,48.0,11.0,-100.00,SSW,212,2.0,8.0,22,0.00,,,0.00,285.000000,,2013-11-21 18:42:00,
2013-11-21 13:52:00,48.0,11.0,-100.00,SSW,212,2.0,8.0,22,0.00,,,0.00,285.000000,,2013-11-21 18:52:00,
2013-11-21 14:01:00,46.0,18.0,-100.00,West,262,1.0,10.0,32,0.00,,,0.00,186.000000,,2013-11-21 19:01:00,
2013-11-21 14:22:00,46.0,18.0,-100.00,West,262,1.0,10.0,32,0.00,,,0.00,186.000000,,2013-11-21 19:22:00,
2013-11-21 14:33:00,46.0,18.0,-100.00,West,262,1.0,10.0,32,0.00,,,0.00,186.000000,,2013-11-21 19:33:00,
2013-11-21 14:42:00,46.0,18.0,-100.00,West,262,1.0,10.0,32,0.00,,,0.00,186.000000,,2013-11-21 19:42:00,
2013-11-21 14:52:00,46.0,18.0,-100.00,West,262,1.0,10.0,32,0.00,,,0.00,186.000000,,2013-11-21 19:52:00,
2013-11-21 15:01:00,44.0,20.0,-100.00,WNW,297,0.0,5.0,38,0.00,,,0.00,78.000000,,2013-11-21 20:01:00,
2013-11-21 15:22:00,44.0,20.0,-100.00,WNW,297,0.0,5.0,38,0.00,,,0.00,78.000000,,2013-11-21 20:22:00,
2013-11-21 15:32:00,44.0,20.0,-100.00,WNW,297,0.0,5.0,38,0.00,,,0.00,78.000000,,2013-11-21 20:32:00,
2013-11-21 15:42:00,44.0,20.0,-100.00,WNW,297,0.0,5.0,38,0.00,,,0.00,78.000000,,2013-11-21 20:42:00,
2013-11-21 15:52:00,44.0,20.0,-100.00,WNW,297,0.0,5.0,38,0.00,,,0.00,78.000000,,2013-11-21 20:52:00,
2013-11-21 16:01:00,41.0,22.0,-100.00,NNE,16,0.0,4.0,46,0.00,,,0.00,44.000000,,2013-11-21 21:01:00,
2013-11-21 16:22:00,41.0,22.0,-100.00,NNE,16,0.0,4.0,46,0.00,,,0.00,44.000000,,2013-11-21 21:22:00,
2013-11-21 16:34:00,41.0,22.0,-100.00,NNE,16,0.0,4.0,46,0.00,,,0.00,44.000000,,2013-11-21 21:34:00,
2013-11-21 16:43:00,41.0,22.0,-100.00,NNE,16,0.0,4.0,46,0.00,,,0.00,44.000000,,2013-11-21 21:43:00,
2013-11-21 16:54:00,41.0,22.0,-100.00,NNE,16,0.0,4.0,46,0.00,,,0.00,44.000000,,2013-11-21 21:54:00,
2013-11-21 17:01:00,36.0,23.0,-100.00,NE,43,0.0,2.0,59,0.00,,,0.00,3.000000,,2013-11-21 22:01:00,
2013-11-21 17:23:00,36.0,23.0,-100.00,NE,43,0.0,2.0,59,0.00,,,0.00,3.000000,,2013-11-21 22:23:00,
2013-11-21 17:33:00,36.0,23.0,-100.00,NE,43,0.0,2.0,59,0.00,,,0.00,3.000000,,2013-11-21 22:33:00,
2013-11-21 17:43:00,36.0,23.0,-100.00,NE,43,0.0,2.0,59,0.00,,,0.00,3.000000,,2013-11-21 22:43:00,
2013-11-21 17:53:00,36.0,23.0,-100.00,NE,43,0.0,2.0,59,0.00,,,0.00,3.000000,,2013-11-21 22:53:00,
2013-11-21 18:01:00,35.0,25.0,-100.00,NE,41,0.0,1.0,67,0.00,,,0.00,0.000000,,2013-11-21 23:01:00,
2013-11-21 18:22:00,35.0,25.0,-100.00,NE,41,0.0,1.0,67,0.00,,,0.00,0.000000,,2013-11-21 23:22:00,
2013-11-21 18:33:00,35.0,25.0,-100.00,NE,41,0.0,1.0,67,0.00,,,0.00,0.000000,,2013-11-21 23:33:00,
2013-11-21 18:42:00,35.0,25.0,-100.00,NE,41,0.0,1.0,67,0.00,,,0.00,0.000000,,2013-11-21 23:42:00,
2013-11-21 18:53:00,35.0,25.0,-100.00,NE,41,0.0,1.0,67,0.00,,,0.00,0.000000,,2013-11-21 23:53:00,
2013-11-21 19:01:00,33.0,24.0,-100.00,ENE,60,0.0,1.0,70,0.00,,,0.00,0.000000,,2013-11-22 00:01:00,
2013-11-21 19:22:00,33.0,24.0,-100.00,ENE,60,0.0,1.0,70,0.00,,,0.00,0.000000,,2013-11-22 00:22:00,
2013-11-21 19:32:00,33.0,24.0,-100.00,ENE,60,0.0,1.0,70,0.00,,,0.00,0.000000,,2013-11-22 00:32:00,
2013-11-21 19:42:00,33.0,24.0,-100.00,ENE,60,0.0,1.0,70,0.00,,,0.00,0.000000,,2013-11-22 00:42:00,
2013-11-21 19:52:00,33.0,24.0,-100.00,ENE,60,0.0,1.0,70,0.00,,,0.00,0.000000,,2013-11-22 00:52:00,
2013-11-21 20:01:00,34.0,24.0,-100.00,ENE,60,0.0,0.0,67,0.00,,,0.00,0.000000,,2013-11-22 01:01:00,
2013-11-21 20:22:00,34.0,24.0,-100.00,ENE,60,0.0,0.0,67,0.00,,,0.00,0.000000,,2013-11-22 01:22:00,
2013-11-21 20:32:00,34.0,24.0,-100.00,ENE,60,0.0,0.0,67,0.00,,,0.00,0.000000,,2013-11-22 01:32:00,
2013-11-21 20:42:00,34.0,24.0,-100.00,ENE,60,0.0,0.0,67,0.00,,,0.00,0.000000,,2013-11-22 01:42:00,
2013-11-21 20:52:00,34.0,24.0,-100.00,ENE,60,0.0,0.0,67,0.00,,,0.00,0.000000,,2013-11-22 01:52:00,
2013-11-21 21:01:00,34.0,25.0,-100.00,SE,141,0.0,0.0,68,0.00,,,0.00,0.000000,,2013-11-22 02:01:00,
2013-11-21 21:22:00,34.0,25.0,-100.00,SE,141,0.0,0.0,68,0.00,,,0.00,0.000000,,2013-11-22 02:22:00,
2013-11-21 21:32:00,34.0,25.0,-100.00,SE,141,0.0,0.0,68,0.00,,,0.00,0.000000,,2013-11-22 02:32:00,
2013-11-21 21:42:00,34.0,25.0,-100.00,SE,141,0.0,0.0,68,0.00,,,0.00,0.000000,,2013-11-22 02:42:00,
2013-11-21 21:53:00,34.0,25.0,-100.00,SE,141,0.0,0.0,68,0.00,,,0.00,0.000000,,2013-11-22 02:53:00,
2013-11-21 22:01:00,33.0,23.0,-100.00,ESE,120,0.0,0.0,65,0.00,,,0.00,0.000000,,2013-11-22 03:01:00,
2013-11-21 22:22:00,33.0,23.0,-100.00,ESE,120,0.0,0.0,65,0.00,,,0.00,0.000000,,2013-11-22 03:22:00,
2013-11-21 22:33:00,33.0,23.0,-100.00,ESE,120,0.0,0.0,65,0.00,,,0.00,0.000000,,2013-11-22 03:33:00,
2013-11-21 22:43:00,33.0,23.0,-100.00,ESE,120,0.0,0.0,65,0.00,,,0.00,0.000000,,2013-11-22 03:43:00,
2013-11-21 22:54:00,33.0,23.0,-100.00,ESE,120,0.0,0.0,65,0.00,,,0.00,0.000000,,2013-11-22 03:54:00,
2013-11-21 23:01:00,33.0,24.0,-100.00,NNE,31,0.0,0.0,70,0.00,,,0.00,0.000000,,2013-11-22 04:01:00,
2013-11-21 23:23:00,33.0,24.0,-100.00,NNE,31,0.0,0.0,70,0.00,,,0.00,0.000000,,2013-11-22 04:23:00,
2013-11-21 23:33:00,33.0,24.0,-100.00,NNE,31,0.0,0.0,70,0.00,,,0.00,0.000000,,2013-11-22 04:33:00,
2013-11-21 23:43:00,33.0,24.0,-100.00,NNE,31,0.0,0.0,70,0.00,,,0.00,0.000000,,2013-11-22 04:43:00,
2013-11-21 23:53:00,33.0,24.0,-100.00,NNE,31,0.0,0.0,70,0.00,,,0.00,0.000000,,2013-11-22 04:53:00,